Time;durP1;ratioP1;P1;durP2;ratioP2;P2;SDS_P1;SDS_P2;PMS_P1;PMS_P2;Temp;Humidity;BMP_temperature;BMP_pressure;BME280_temperature;BME280_humidity;BME280_pressure;Samples;Min_cycle;Max_cycle;Signal;HPM_P1;HPM_P2
2023/08/25 00:00:09;;;;;;;7.78;6.15;;;;;;;-145.63;53.30;39272.63;5025518;28;20081;-70
2023/08/25 00:02:36;;;;;;;11.50;4.82;;;;;;;-145.63;53.27;39262.84;5026113;28;20025;-70
2023/08/25 00:05:03;;;;;;;7.57;4.43;;;;;;;-145.63;53.74;39221.78;5025897;28;20092;-69
2023/08/25 00:07:30;;;;;;;7.00;4.10;;;;;;;-145.63;53.42;39268.72;5025965;28;20022;-69
2023/08/25 00:09:55;;;;;;;6.22;5.13;;;;;;;-145.63;53.46;39253.06;5025576;28;20326;-69
2023/08/25 00:12:22;;;;;;;14.02;6.47;;;;;;;-145.63;53.50;39268.72;5024902;28;20032;-71
2023/08/25 00:14:48;;;;;;;9.48;5.75;;;;;;;-145.63;53.77;39243.28;5025395;28;20029;-70
2023/08/25 00:17:14;;;;;;;9.35;6.20;;;;;;;-145.63;53.68;39372.34;5025582;28;20092;-70
2023/08/25 00:19:40;;;;;;;13.65;9.68;;;;;;;-145.63;53.84;39278.47;5024910;28;20025;-70
2023/08/25 00:22:06;;;;;;;10.95;8.55;;;;;;;-145.63;53.38;39305.88;5025415;28;20107;-69
2023/08/25 00:24:32;;;;;;;8.18;6.63;;;;;;;-145.63;53.70;39282.41;5025479;28;20089;-69
2023/08/25 00:26:59;;;;;;;8.32;6.38;;;;;;;-145.63;53.71;39255.00;5025547;28;20088;-70
2023/08/25 00:29:24;;;;;;;9.98;6.03;;;;;;;-145.63;53.78;39266.75;5025404;28;20049;-70
2023/08/25 00:31:51;;;;;;;7.88;4.82;;;;;;;-145.63;53.69;39290.22;5025350;28;20311;-70
2023/08/25 00:34:17;;;;;;;8.30;4.65;;;;;;;-145.63;53.76;39217.84;5025395;28;20022;-70
2023/08/25 00:36:42;;;;;;;8.27;4.20;;;;;;;-145.63;53.90;39296.09;5024280;28;20014;-70
2023/08/25 00:39:08;;;;;;;8.00;4.65;;;;;;;-145.63;53.98;39288.25;5025036;28;20021;-69
2023/08/25 00:41:34;;;;;;;10.85;4.32;;;;;;;-145.63;53.95;39266.75;5025027;28;20076;-69
2023/08/25 00:43:59;;;;;;;9.35;4.88;;;;;;;-145.63;54.35;39280.44;5025038;28;20093;-68
2023/08/25 00:46:25;;;;;;;9.00;4.53;;;;;;;-145.63;54.31;39278.47;5024963;28;20036;-70
2023/08/25 00:48:51;;;;;;;11.30;7.00;;;;;;;-145.63;54.25;39266.75;5027652;28;20195;-71
2023/08/25 00:51:18;;;;;;;9.98;5.97;;;;;;;-145.63;54.77;39258.94;5027296;28;20030;-70
2023/08/25 00:53:45;;;;;;;6.32;4.55;;;;;;;-145.63;54.05;39399.75;5025023;28;20052;-70
2023/08/25 00:56:13;;;;;;;6.95;4.05;;;;;;;-145.63;54.05;39251.09;5025239;28;20041;-70
2023/08/25 00:58:40;;;;;;;18.00;12.65;;;;;;;-145.63;54.05;39270.66;5025068;28;20206;-69
2023/08/25 01:01:06;;;;;;;10.63;6.55;;;;;;;-145.63;53.91;39305.88;5024580;28;20033;-69
2023/08/25 01:03:33;;;;;;;17.50;13.40;;;;;;;-145.63;53.89;39296.09;5025024;28;20033;-69
2023/08/25 01:05:59;;;;;;;25.73;18.95;;;;;;;-145.63;54.41;39313.69;5024596;28;20041;-69
2023/08/25 01:08:25;;;;;;;11.23;7.18;;;;;;;-145.63;53.96;39055.53;5032896;28;20025;-69
2023/08/25 01:10:59;;;;;;;13.45;5.63;;;;;;;-145.63;53.84;39307.81;5036464;28;20037;-69
2023/08/25 01:13:55;;;;;;;11.45;8.70;;;;;;;-145.63;53.88;39296.09;5024938;28;20026;-68
2023/08/25 01:16:29;;;;;;;21.52;14.07;;;;;;;-145.63;54.04;39311.72;5021086;28;20425;-68
2023/08/25 01:18:56;;;;;;;13.80;9.95;;;;;;;-145.63;54.40;39276.53;5022526;28;20088;-68
2023/08/25 01:21:22;;;;;;;7.00;5.45;;;;;;;-145.63;54.22;39323.47;5024383;28;20060;-69
2023/08/25 01:24:02;;;;;;;9.65;5.95;;;;;;;-145.63;54.44;39294.13;5024156;28;20100;-68
2023/08/25 01:26:29;;;;;;;9.35;6.68;;;;;;;-145.63;54.35;39376.28;5024136;28;20040;-70
2023/08/25 01:28:55;;;;;;;7.55;5.30;;;;;;;-145.63;54.98;39290.22;5023323;28;20045;-70
2023/08/25 01:31:21;;;;;;;11.73;5.60;;;;;;;-145.63;54.40;39325.41;5024243;28;20045;-70
2023/08/25 01:33:48;;;;;;;11.90;7.90;;;;;;;-145.63;54.69;39337.16;5024232;28;20026;-69
2023/08/25 01:36:20;;;;;;;13.75;7.00;;;;;;;-145.63;53.90;39278.47;5023192;28;20049;-69
2023/08/25 01:39:07;;;;;;;15.32;12.85;;;;;;;-145.63;54.09;39282.41;5030280;28;20036;-69
2023/08/25 01:41:46;;;;;;;14.48;11.05;;;;;;;-145.63;53.81;39305.88;5013625;28;20065;-69
2023/08/25 01:44:14;;;;;;;9.98;4.90;;;;;;;-145.63;54.37;39350.84;5024118;28;20034;-69
2023/08/25 01:46:47;;;;;;;8.25;4.60;;;;;;;-145.63;54.40;39335.19;5023893;28;20083;-69
2023/08/25 01:49:14;;;;;;;12.80;9.48;;;;;;;-145.63;54.89;39315.66;5016568;28;20029;-69
2023/08/25 01:51:41;;;;;;;10.82;6.68;;;;;;;-145.63;54.72;39335.19;5026362;28;20246;-69
2023/08/25 01:54:07;;;;;;;10.65;6.82;;;;;;;-145.63;54.68;39282.41;5023846;28;20034;-68
2023/08/25 01:56:32;;;;;;;7.70;5.75;;;;;;;-145.63;54.85;39282.41;5023856;28;20038;-69
2023/08/25 01:58:58;;;;;;;13.88;6.00;;;;;;;-145.63;55.16;39043.81;5023761;28;20060;-69
2023/08/25 02:01:25;;;;;;;10.25;5.53;;;;;;;-145.63;55.22;39274.56;5023834;28;20060;-69
2023/08/25 02:03:52;;;;;;;7.78;5.22;;;;;;;-145.63;55.72;39298.03;5022624;28;20188;-69
2023/08/25 02:06:18;;;;;;;5.05;4.55;;;;;;;-145.63;55.15;39311.72;5023631;28;20025;-69
2023/08/25 02:08:44;;;;;;;7.35;4.18;;;;;;;-145.63;54.95;39274.56;5023782;28;20024;-69
2023/08/25 02:11:10;;;;;;;8.85;4.72;;;;;;;-145.63;54.70;39333.25;5005951;28;20279;-69
2023/08/25 02:13:36;;;;;;;10.90;4.03;;;;;;;-145.63;54.34;39333.25;5023566;28;20055;-69
2023/08/25 02:16:02;;;;;;;10.27;4.35;;;;;;;-145.63;54.99;39305.88;5023452;28;20317;-69
2023/08/25 02:18:28;;;;;;;9.05;4.10;;;;;;;-145.63;54.46;39329.34;5023635;28;20026;-68
2023/08/25 02:20:55;;;;;;;10.43;4.35;;;;;;;-145.63;54.67;39319.56;5023217;28;20022;-68
2023/08/25 02:23:22;;;;;;;7.68;4.68;;;;;;;-145.63;54.89;39294.13;5023277;28;20049;-69
2023/08/25 02:25:47;;;;;;;7.57;4.15;;;;;;;-145.63;54.95;39307.81;5023502;28;20064;-70
2023/08/25 02:28:13;;;;;;;10.77;4.55;;;;;;;-145.63;54.77;39313.69;5023355;28;20022;-69
2023/08/25 02:30:39;;;;;;;5.97;4.28;;;;;;;-145.63;54.97;39284.34;5013873;28;20085;-69
2023/08/25 02:33:06;;;;;;;6.30;4.10;;;;;;;-145.63;55.10;39317.59;5021482;28;20025;-70
2023/08/25 02:35:32;;;;;;;12.32;4.85;;;;;;;-145.63;54.75;39294.13;5022761;28;20040;-70
2023/08/25 02:38:00;;;;;;;9.77;4.75;;;;;;;-145.63;54.63;39301.94;5023192;28;20034;-69
2023/08/25 02:40:27;;;;;;;9.05;4.95;;;;;;;-145.63;54.99;39305.88;5023409;28;20022;-70
2023/08/25 02:42:59;;;;;;;5.82;4.07;;;;;;;-145.63;54.59;39343.03;5023441;28;20044;-69
2023/08/25 02:45:26;;;;;;;9.18;4.35;;;;;;;-145.63;54.82;39335.19;5016566;28;20037;-69
2023/08/25 02:47:53;;;;;;;8.02;4.20;;;;;;;-145.63;54.95;39380.19;5023206;28;20077;-68
2023/08/25 02:50:20;;;;;;;80.13;12.50;;;;;;;-145.63;54.67;39307.81;5026876;28;20041;-69
2023/08/25 02:52:45;;;;;;;45.03;24.98;;;;;;;-145.63;55.12;39305.88;5028808;28;20033;-69
2023/08/25 02:55:14;;;;;;;17.88;8.55;;;;;;;-145.63;55.31;39284.34;5023639;28;20040;-69
2023/08/25 02:57:41;;;;;;;8.77;4.75;;;;;;;-145.63;55.29;39321.50;5023068;28;20032;-69
2023/08/25 03:00:11;;;;;;;7.40;4.32;;;;;;;-145.63;55.11;39284.34;5023713;28;20057;-69
2023/08/25 03:02:37;;;;;;;8.77;4.43;;;;;;;-145.63;54.84;39300.00;5023138;28;20030;-69
2023/08/25 03:05:03;;;;;;;5.10;4.45;;;;;;;-145.63;54.88;39317.59;5023023;28;20036;-68
2023/08/25 03:07:29;;;;;;;8.73;4.63;;;;;;;-145.63;55.41;39325.41;5027896;28;20022;-69
2023/08/25 03:09:55;;;;;;;7.05;4.07;;;;;;;-145.63;54.74;39305.88;5022757;28;20084;-68
2023/08/25 03:12:20;;;;;;;24.50;17.15;;;;;;;-145.63;55.49;39307.81;5025428;28;20376;-70
2023/08/25 03:14:46;;;;;;;20.52;11.82;;;;;;;-145.63;55.64;39288.25;5034210;28;20030;-69
2023/08/25 03:17:12;;;;;;;14.65;8.85;;;;;;;-145.63;55.10;39309.78;5027027;28;20042;-69
2023/08/25 03:19:37;;;;;;;13.88;6.53;;;;;;;-145.63;55.26;39305.88;5035782;28;20021;-70
2023/08/25 03:22:04;;;;;;;25.45;15.60;;;;;;;-145.63;55.45;39296.09;5022644;28;20057;-70
2023/08/25 03:24:29;;;;;;;9.18;6.10;;;;;;;-145.63;55.88;39292.19;5023000;28;20034;-70
2023/08/25 03:26:58;;;;;;;12.15;9.38;;;;;;;-145.63;55.61;39280.44;5023049;28;20191;-69
2023/08/25 03:29:24;;;;;;;11.25;7.38;;;;;;;-145.63;55.61;39315.66;5022522;28;20042;-69
2023/08/25 03:31:50;;;;;;;10.18;6.88;;;;;;;-145.63;55.16;39274.56;5022781;28;20083;-69
2023/08/25 03:34:15;;;;;;;11.05;7.07;;;;;;;-145.63;55.16;39286.31;5022619;28;20026;-68
2023/08/25 03:36:41;;;;;;;9.25;5.15;;;;;;;-145.63;55.07;39274.56;5022780;28;20077;-69
2023/08/25 03:39:06;;;;;;;9.82;4.85;;;;;;;-145.63;55.74;39258.94;5022643;28;20022;-68
2023/08/25 03:41:32;;;;;;;15.73;5.75;;;;;;;-145.63;55.16;39268.72;5022398;28;20030;-69
2023/08/25 03:43:58;;;;;;;8.88;5.05;;;;;;;-145.63;55.28;39262.84;5022454;28;20033;-69
2023/08/25 03:46:23;;;;;;;6.85;4.68;;;;;;;-145.63;54.80;39280.44;5022729;28;20029;-69
2023/08/25 03:48:49;;;;;;;15.90;6.85;;;;;;;-145.63;54.61;39260.88;5025633;28;20037;-69
2023/08/25 03:51:15;;;;;;;8.40;4.82;;;;;;;-145.63;54.49;39247.19;5033397;28;20034;-69
2023/08/25 03:53:40;;;;;;;18.38;9.25;;;;;;;-145.63;54.94;39268.72;5031129;28;20093;-69
2023/08/25 03:56:06;;;;;;;17.75;12.45;;;;;;;-145.63;55.02;39255.00;5026247;28;20029;-70
2023/08/25 03:58:32;;;;;;;16.75;12.60;;;;;;;-145.63;54.57;39208.06;5024950;28;20064;-71
2023/08/25 04:00:59;;;;;;;17.48;12.32;;;;;;;-145.63;54.76;39376.28;5026473;28;20036;-69
2023/08/25 04:03:25;;;;;;;39.03;29.70;;;;;;;-145.63;54.84;39192.44;5025696;28;20034;-70
2023/08/25 04:05:50;;;;;;;33.55;26.35;;;;;;;-145.63;54.74;39253.06;5025528;28;20034;-70
2023/08/25 04:08:16;;;;;;;27.40;19.08;;;;;;;-145.63;54.25;39212.00;5025636;28;20045;-70
2023/08/25 04:10:43;;;;;;;18.02;13.30;;;;;;;-145.63;53.86;39247.19;5026149;28;20325;-70
2023/08/25 04:13:09;;;;;;;23.88;17.48;;;;;;;-145.63;53.36;39225.69;5025584;28;20026;-70
2023/08/25 04:15:36;;;;;;;27.80;15.57;;;;;;;-145.63;53.04;39229.59;5025461;28;20099;-70
2023/08/25 04:18:02;;;;;;;11.60;7.55;;;;;;;-145.63;53.65;39229.59;5025402;28;20034;-70
2023/08/25 04:20:28;;;;;;;24.45;17.30;;;;;;;-145.63;53.44;39219.81;5025800;28;20329;-69
2023/08/25 04:22:54;;;;;;;42.92;33.22;;;;;;;-145.63;53.51;39237.41;5026242;28;20045;-69
2023/08/25 04:25:19;;;;;;;14.93;9.65;;;;;;;-145.63;52.56;39262.84;5034308;28;20029;-69
2023/08/25 04:27:45;;;;;;;8.88;5.22;;;;;;;-145.63;52.29;39221.78;5028980;28;20037;-69
2023/08/25 04:30:11;;;;;;;17.33;7.57;;;;;;;-145.63;52.40;39251.09;5024979;28;20018;-69
2023/08/25 04:32:37;;;;;;;13.07;7.97;;;;;;;-145.63;52.71;39192.44;5028578;28;20044;-69
2023/08/25 04:35:03;;;;;;;11.55;5.15;;;;;;;-145.63;52.80;39235.47;5033918;28;20371;-68
2023/08/25 04:37:30;;;;;;;12.18;5.57;;;;;;;-145.63;52.31;39227.63;5025530;28;20049;-69
2023/08/25 04:39:55;;;;;;;11.48;5.07;;;;;;;-145.63;52.42;39231.53;5025041;28;20033;-70
2023/08/25 04:42:22;;;;;;;6.32;4.55;;;;;;;-145.63;51.66;39212.00;5024988;28;20041;-69
2023/08/25 04:44:48;;;;;;;8.38;4.60;;;;;;;-145.63;51.86;39225.69;5023975;28;20244;-70
2023/08/25 04:47:15;;;;;;;7.82;5.03;;;;;;;-145.63;52.08;39168.97;5026630;28;20074;-70
2023/08/25 04:49:43;;;;;;;6.22;4.10;;;;;;;-145.63;52.20;39208.06;5034696;28;20018;-69
2023/08/25 04:52:08;;;;;;;6.20;3.50;;;;;;;-145.63;50.38;39159.19;5039385;28;20060;-69
2023/08/25 04:54:34;;;;;;;6.22;3.58;;;;;;;-145.63;50.20;39196.34;5032099;28;20026;-70
2023/08/25 04:57:00;;;;;;;8.30;3.78;;;;;;;-145.63;49.90;39188.53;5023808;28;20026;-69
2023/08/25 04:59:26;;;;;;;7.47;3.72;;;;;;;-145.63;50.46;39223.72;5023979;28;20021;-69
2023/08/25 05:01:51;;;;;;;5.13;3.47;;;;;;;-145.63;49.48;39184.59;5029896;28;20022;-70
2023/08/25 05:04:17;;;;;;;5.32;3.42;;;;;;;-145.63;49.02;39182.66;5033717;28;20037;-68
2023/08/25 05:06:42;;;;;;;5.60;3.60;;;;;;;-145.63;49.66;39172.88;5024940;28;20038;-67
2023/08/25 05:09:09;;;;;;;4.25;3.22;;;;;;;-145.63;49.26;39188.53;5024252;28;20026;-66
2023/08/25 05:11:35;;;;;;;3.85;2.70;;;;;;;-145.63;47.70;39157.22;5025245;28;20049;-68
2023/08/25 05:14:01;;;;;;;7.80;2.90;;;;;;;-145.63;48.47;39157.22;5035243;28;20381;-68
2023/08/25 05:16:28;;;;;;;4.35;3.00;;;;;;;-145.63;48.83;39141.59;5007025;28;20053;-68
2023/08/25 05:18:53;;;;;;;6.00;2.78;;;;;;;-145.63;48.31;39131.81;5028651;28;20206;-67
2023/08/25 05:21:20;;;;;;;4.13;3.03;;;;;;;-145.63;47.97;39127.91;5015793;28;20022;-69
2023/08/25 05:23:48;;;;;;;8.35;2.80;;;;;;;-145.63;47.83;39129.84;5017400;28;20038;-67
2023/08/25 05:26:14;;;;;;;7.25;3.22;;;;;;;-145.63;47.27;39157.22;5018113;28;20033;-68
2023/08/25 05:28:40;;;;;;;5.65;2.70;;;;;;;-145.63;46.79;39135.72;5017068;28;20020;-67
2023/08/25 05:31:05;;;;;;;4.65;2.67;;;;;;;-145.63;47.30;39122.03;5020547;28;20017;-68
2023/08/25 05:33:31;;;;;;;4.07;2.85;;;;;;;-145.63;47.94;39137.69;5021510;28;20126;-69
2023/08/25 05:35:56;;;;;;;5.63;3.30;;;;;;;-145.63;46.79;39114.22;5017505;28;20030;-68
2023/08/25 05:38:22;;;;;;;3.50;2.50;;;;;;;-145.63;46.84;39100.50;5018777;28;20022;-69
2023/08/25 05:40:48;;;;;;;4.55;2.45;;;;;;;-145.63;44.71;39082.91;5015920;28;20017;-70
2023/08/25 05:43:13;;;;;;;5.13;2.20;;;;;;;-145.63;45.21;39100.50;5017991;28;20022;-69
2023/08/25 05:45:39;;;;;;;5.60;2.60;;;;;;;-145.63;45.56;39096.59;5017135;28;20018;-70
2023/08/25 05:48:05;;;;;;;2.42;2.08;;;;;;;-145.63;43.42;39080.97;5017824;28;20026;-69
2023/08/25 05:50:31;;;;;;;4.35;2.28;;;;;;;-145.63;43.11;39139.63;5026413;28;20034;-69
2023/08/25 05:52:56;;;;;;;2.85;1.88;;;;;;;-145.63;42.93;39057.50;5026702;28;20026;-69
2023/08/25 05:55:23;;;;;;;2.75;1.85;;;;;;;-145.63;43.09;39061.41;5020607;28;20038;-70
2023/08/25 05:57:49;;;;;;;3.65;1.92;;;;;;;-145.63;41.01;39075.09;5016466;28;20022;-70
2023/08/25 06:00:15;;;;;;;1.63;1.50;;;;;;;-145.63;39.22;39067.28;5015509;28;20056;-68
2023/08/25 06:02:41;;;;;;;6.15;1.75;;;;;;;-145.63;40.01;39067.28;5007716;28;20040;-68
2023/08/25 06:05:07;;;;;;;4.20;2.03;;;;;;;-145.63;41.41;39059.44;5024006;28;20026;-66
2023/08/25 06:07:32;;;;;;;2.30;1.80;;;;;;;-145.63;41.09;39035.97;5019557;28;20041;-68
2023/08/25 06:09:59;;;;;;;3.72;1.90;;;;;;;-145.63;40.72;39006.66;5033375;28;20066;-68
2023/08/25 06:12:24;;;;;;;1.00;0.85;;;;;;;-145.63;34.51;39024.25;5026138;28;20033;-67
2023/08/25 06:14:52;;;;;;;3.25;1.60;;;;;;;-145.63;35.57;39032.06;5021133;28;20125;-68
2023/08/25 06:17:17;;;;;;;1.10;1.00;;;;;;;-145.63;34.72;39016.44;5017606;28;20041;-68
2023/08/25 06:19:43;;;;;;;1.98;1.63;;;;;;;-145.63;35.66;39028.16;5016161;28;20018;-66
2023/08/25 06:22:11;;;;;;;2.53;1.58;;;;;;;-145.63;35.89;38994.91;5015357;28;20275;-68
2023/08/25 06:24:36;;;;;;;1.83;1.65;;;;;;;-145.63;36.68;38985.13;5015577;28;20093;-67
2023/08/25 06:27:02;;;;;;;3.65;1.80;;;;;;;-145.63;37.48;38961.66;5022936;28;20093;-67
2023/08/25 06:29:29;;;;;;;3.90;2.10;;;;;;;-145.63;37.78;38998.81;5023432;28;20018;-68
2023/08/25 06:31:56;;;;;;;5.57;1.35;;;;;;;-145.63;36.49;38971.44;5023375;28;20054;-67
2023/08/25 06:34:22;;;;;;;1.85;1.35;;;;;;;-145.63;35.56;38957.75;5023389;28;20091;-67
2023/08/25 06:36:48;;;;;;;2.60;1.63;;;;;;;-145.63;35.79;38953.84;5023460;28;20033;-68
2023/08/25 06:39:14;;;;;;;1.95;1.35;;;;;;;-145.63;34.42;38996.88;5029895;28;20032;-67
2023/08/25 06:41:40;;;;;;;2.42;1.30;;;;;;;-145.63;36.62;38957.75;5032749;28;20026;-66
2023/08/25 06:44:06;;;;;;;1.65;0.90;;;;;;;-145.63;33.48;38947.97;5021951;28;20021;-67
2023/08/25 06:46:33;;;;;;;1.02;0.93;;;;;;;-145.63;33.94;38961.66;5019848;28;20038;-68
2023/08/25 06:48:58;;;;;;;1.48;1.38;;;;;;;-145.63;34.83;38934.28;5020840;28;20217;-68
2023/08/25 06:51:24;;;;;;;3.53;2.38;;;;;;;-145.63;35.18;38949.94;5032044;28;20037;-68
2023/08/25 06:53:50;;;;;;;1.90;1.10;;;;;;;-145.63;34.91;38934.28;5032328;28;20233;-67
2023/08/25 06:56:15;;;;;;;1.67;1.23;;;;;;;-145.63;35.63;38895.19;5031377;28;20060;-68
2023/08/25 06:58:41;;;;;;;1.60;1.50;;;;;;;-145.63;34.66;38906.91;5017012;28;20057;-67
2023/08/25 07:01:07;;;;;;;1.65;1.33;;;;;;;-145.63;33.62;38912.78;5023081;28;20037;-69
2023/08/25 07:03:34;;;;;;;2.72;1.42;;;;;;;-145.63;33.50;38926.47;5019800;28;20076;-67
2023/08/25 07:06:00;;;;;;;4.38;1.50;;;;;;;-145.63;33.36;38914.72;5014377;28;20040;-67
2023/08/25 07:08:26;;;;;;;1.10;1.00;;;;;;;-145.63;32.40;38936.25;5019734;28;20054;-68
2023/08/25 07:10:52;;;;;;;1.50;1.25;;;;;;;-145.63;33.74;38903.00;5017143;28;20029;-67
2023/08/25 07:13:18;;;;;;;3.33;1.40;;;;;;;-145.63;33.25;38903.00;5019189;28;20052;-68
2023/08/25 07:15:43;;;;;;;2.47;1.40;;;;;;;-145.63;33.27;38883.44;5020625;28;20022;-67
2023/08/25 07:18:10;;;;;;;1.40;1.30;;;;;;;-145.63;33.61;38908.88;5016127;28;20026;-68
2023/08/25 07:20:35;;;;;;;5.38;1.40;;;;;;;-145.63;32.60;38926.47;5017824;28;20026;-68
2023/08/25 07:23:01;;;;;;;3.58;1.92;;;;;;;-145.63;31.53;38932.34;5018234;28;20144;-68
2023/08/25 07:25:27;;;;;;;3.17;1.30;;;;;;;-145.63;34.38;38920.59;5022347;28;20033;-68
2023/08/25 07:27:52;;;;;;;3.00;1.60;;;;;;;-145.63;32.93;38879.53;5025608;28;20018;-67
2023/08/25 07:30:18;;;;;;;1.30;1.20;;;;;;;-145.63;32.47;38904.97;5032450;28;20042;-67
2023/08/25 07:32:44;;;;;;;1.42;1.15;;;;;;;-145.63;32.86;38867.81;5026353;28;20100;-68
2023/08/25 07:35:09;;;;;;;2.03;1.50;;;;;;;-145.63;33.02;38877.56;5031066;28;20056;-66
2023/08/25 07:37:37;;;;;;;3.05;1.30;;;;;;;-145.63;32.84;38871.72;5026266;28;20329;-67
2023/08/25 07:40:05;;;;;;;1.13;1.02;;;;;;;-145.63;31.23;38895.19;5022715;28;20034;-67
2023/08/25 07:42:31;;;;;;;1.90;1.27;;;;;;;-145.63;32.99;38938.19;5021894;28;20026;-66
2023/08/25 07:44:57;;;;;;;3.33;1.40;;;;;;;-145.63;32.90;38936.25;5022168;28;20034;-67
2023/08/25 07:47:23;;;;;;;2.70;1.20;;;;;;;-145.63;32.34;38928.44;5031613;28;20374;-68
2023/08/25 07:49:49;;;;;;;2.25;1.00;;;;;;;-145.63;32.71;38985.13;5038061;28;20024;-67
2023/08/25 07:52:14;;;;;;;3.13;1.20;;;;;;;-145.63;34.00;38963.63;5028291;28;20026;-68
2023/08/25 07:54:40;;;;;;;1.10;1.00;;;;;;;-145.63;35.06;38957.75;5025965;28;20025;-68
2023/08/25 07:57:06;;;;;;;2.28;1.20;;;;;;;-145.63;36.17;38930.38;5025805;28;20026;-68
2023/08/25 07:59:32;;;;;;;1.40;1.30;;;;;;;-145.63;33.90;38906.91;5032388;28;20125;-66
2023/08/25 08:01:57;;;;;;;2.47;1.40;;;;;;;-145.63;32.02;38903.00;5035342;28;20045;-68
2023/08/25 08:04:23;;;;;;;2.17;1.30;;;;;;;-145.63;32.76;38799.34;5024629;28;20022;-68
2023/08/25 08:06:55;;;;;;;3.42;2.10;;;;;;;-145.63;31.89;38830.66;5024032;28;20030;-68
2023/08/25 08:09:21;;;;;;;1.30;1.20;;;;;;;-145.63;32.47;38820.88;5025312;28;20092;-68
2023/08/25 08:11:46;;;;;;;1.48;1.00;;;;;;;-145.63;31.36;38844.34;5025357;28;20041;-67
2023/08/25 08:14:12;;;;;;;3.10;1.30;;;;;;;-145.63;32.51;38815.00;5025500;28;20040;-67
2023/08/25 08:16:37;;;;;;;3.45;1.35;;;;;;;-145.63;30.16;38811.09;5017007;28;20026;-67
2023/08/25 08:19:05;;;;;;;1.92;1.00;;;;;;;-145.63;28.90;38838.47;5025351;28;20026;-67
2023/08/25 08:21:31;;;;;;;1.70;0.93;;;;;;;-145.63;28.59;38832.59;5025167;28;20030;-67
2023/08/25 08:23:57;;;;;;;2.78;1.20;;;;;;;-145.63;29.30;38824.78;5034136;28;20054;-68
2023/08/25 08:26:23;;;;;;;2.40;1.00;;;;;;;-145.63;28.11;38842.38;5025431;28;20034;-67
2023/08/25 08:28:48;;;;;;;1.63;1.20;;;;;;;-145.63;30.58;38773.94;5024046;28;20191;-68
2023/08/25 08:31:18;;;;;;;4.53;1.20;;;;;;;-145.63;30.46;38758.28;5024475;28;20025;-69
2023/08/25 08:33:45;;;;;;;1.98;1.55;;;;;;;-145.63;30.49;38746.56;5023629;28;20026;-67
2023/08/25 08:36:11;;;;;;;1.98;1.20;;;;;;;-145.63;31.58;38836.50;5024837;28;20029;-68
2023/08/25 08:38:37;;;;;;;2.55;1.45;;;;;;;-145.63;30.86;38871.72;5025083;28;20029;-68
2023/08/25 08:41:03;;;;;;;4.72;1.50;;;;;;;-145.63;29.93;38840.44;5024548;28;20084;-67
2023/08/25 08:43:38;;;;;;;2.25;1.67;;;;;;;-145.63;29.46;38859.97;5024817;28;20030;-67
2023/08/25 08:46:04;;;;;;;1.65;1.30;;;;;;;-145.63;31.15;38852.16;5024984;28;20317;-67
2023/08/25 08:48:35;;;;;;;2.25;1.25;;;;;;;-145.63;32.31;38852.16;5024437;28;20037;-67
2023/08/25 08:51:01;;;;;;;2.92;1.70;;;;;;;-145.63;33.17;38854.13;5024727;28;20210;-67
2023/08/25 08:53:27;;;;;;;4.57;2.47;;;;;;;-145.63;32.87;38889.31;5024855;28;20025;-67
2023/08/25 08:55:54;;;;;;;3.33;1.70;;;;;;;-145.63;31.31;38867.81;5024757;28;20029;-68
2023/08/25 08:58:21;;;;;;;2.75;1.63;;;;;;;-145.63;31.29;38850.19;5024426;28;20037;-67
2023/08/25 09:00:47;;;;;;;2.63;1.50;;;;;;;-145.63;31.91;38859.97;5024746;28;20133;-67
2023/08/25 09:03:18;;;;;;;3.20;1.65;;;;;;;-145.63;34.20;38861.94;5024385;28;20076;-67
2023/08/25 09:05:46;;;;;;;6.07;1.50;;;;;;;-145.63;32.51;38863.88;5025370;28;20022;-67
2023/08/25 09:08:13;;;;;;;1.98;1.35;;;;;;;-145.63;33.18;38861.94;5037619;28;20022;-68
2023/08/25 09:10:39;;;;;;;1.85;1.27;;;;;;;-145.63;31.36;38899.09;5024393;28;20097;-67
2023/08/25 09:13:05;;;;;;;1.85;1.60;;;;;;;-145.63;31.78;38879.53;5024270;28;20340;-67
2023/08/25 09:15:32;;;;;;;2.83;2.30;;;;;;;-145.63;31.66;38867.81;5024462;28;20036;-67
2023/08/25 09:18:07;;;;;;;3.00;1.50;;;;;;;-145.63;32.50;38897.13;5010132;28;20033;-68
2023/08/25 09:20:38;;;;;;;2.03;1.73;;;;;;;-145.63;33.51;38861.94;5024536;28;20094;-68
2023/08/25 09:23:04;;;;;;;3.17;1.40;;;;;;;-145.63;33.86;38805.22;5024311;28;20072;-68
2023/08/25 09:25:33;;;;;;;5.65;1.67;;;;;;;-145.63;33.08;38793.50;5024114;28;20065;-68
2023/08/25 09:28:01;;;;;;;4.70;1.70;;;;;;;-145.63;31.35;38701.59;5023710;28;20045;-67
2023/08/25 09:30:40;;;;;;;3.72;1.90;;;;;;;-145.63;29.24;38713.31;5023784;28;20187;-68
2023/08/25 09:33:09;;;;;;;2.40;1.60;;;;;;;-145.63;28.91;38732.88;5024280;28;20025;-67
2023/08/25 09:35:35;;;;;;;3.67;1.55;;;;;;;-145.63;29.93;38654.66;5023971;28;20194;-68
2023/08/25 09:38:01;;;;;;;2.95;1.60;;;;;;;-145.63;29.56;38682.03;5023802;28;20028;-68
2023/08/25 09:40:28;;;;;;;4.25;1.50;;;;;;;-145.63;29.80;38701.59;5023984;28;20049;-68
2023/08/25 09:43:00;;;;;;;2.35;1.50;;;;;;;-145.63;27.88;38676.16;5023814;28;20026;-66
2023/08/25 09:45:30;;;;;;;1.50;1.40;;;;;;;-145.63;26.35;38746.56;5023381;28;20120;-67
2023/08/25 09:48:16;;;;;;;2.20;2.00;;;;;;;-145.63;28.75;38701.59;5023752;28;20026;-68
2023/08/25 09:50:43;;;;;;;3.22;1.27;;;;;;;-145.63;29.42;38699.63;5023837;28;20018;-67
2023/08/25 09:53:13;;;;;;;1.70;1.50;;;;;;;-145.63;27.95;38678.13;5024422;28;20042;-66
2023/08/25 09:55:39;;;;;;;2.33;1.70;;;;;;;-145.63;26.55;38664.44;5023638;28;20056;-66
2023/08/25 09:58:06;;;;;;;2.05;1.48;;;;;;;-145.63;25.55;38689.84;5023393;28;20033;-67
2023/08/25 10:00:38;;;;;;;1.88;1.77;;;;;;;-145.63;27.85;38617.50;5023521;28;20021;-68
2023/08/25 10:03:05;;;;;;;;;;;;;;;-145.63;28.12;38640.97;5024058;28;20222;-68
2023/08/25 10:05:34;;;;;;;5.78;3.45;;;;;;;-145.63;27.98;38725.06;5023383;28;19905;-67
2023/08/25 10:08:00;;;;;;;4.03;3.67;;;;;;;-145.63;28.18;38736.78;5023370;28;20084;-68
2023/08/25 10:10:29;;;;;;;2.75;1.50;;;;;;;-145.63;28.10;38828.69;5023116;28;20029;-68
2023/08/25 10:12:57;;;;;;;1.70;1.42;;;;;;;-145.63;29.75;38809.13;5023619;28;20022;-68
2023/08/25 10:15:27;;;;;;;2.85;1.42;;;;;;;-145.63;30.50;38783.72;5023272;28;20033;-67
2023/08/25 10:17:59;;;;;;;3.67;1.80;;;;;;;-145.63;31.14;38771.97;5022439;28;20028;-68
2023/08/25 10:20:26;;;;;;;2.60;1.55;;;;;;;-145.63;31.56;38799.34;5007301;28;20314;-68
2023/08/25 10:22:53;;;;;;;1.60;1.35;;;;;;;-145.63;31.21;38766.13;5023221;28;20069;-68
2023/08/25 10:25:20;;;;;;;1.85;1.63;;;;;;;-145.63;30.09;38807.19;5023011;28;20030;-67
2023/08/25 10:27:46;;;;;;;3.95;1.88;;;;;;;-145.63;28.96;38740.69;5023291;28;20032;-67
2023/08/25 10:30:12;;;;;;;3.88;2.10;;;;;;;-145.63;28.54;38770.03;5022520;28;20032;-68
2023/08/25 10:33:11;;;;;;;3.70;2.00;;;;;;;-145.63;28.25;38734.81;5023020;28;20083;-68
2023/08/25 10:35:40;;;;;;;6.53;2.10;;;;;;;-145.63;30.19;38701.59;5011638;28;20053;-68
2023/08/25 10:38:18;;;;;;;3.42;1.55;;;;;;;-145.63;29.18;38678.13;5022951;28;20093;-67
2023/08/25 10:40:54;;;;;;;2.00;1.77;;;;;;;-145.63;27.11;38676.16;5023297;28;20071;-67
2023/08/25 10:43:40;;;;;;;3.60;2.20;;;;;;;-145.63;27.79;38666.38;5022991;28;20246;-67
2023/08/25 10:46:10;;;;;;;2.75;1.95;;;;;;;-145.63;28.13;38662.47;5022744;28;20368;-68
2023/08/25 10:48:40;;;;;;;2.15;1.67;;;;;;;-145.63;25.33;38648.78;5008511;28;20030;-68
2023/08/25 10:51:16;;;;;;;2.60;2.15;;;;;;;-145.63;24.77;38664.44;5011168;28;20030;-68
2023/08/25 10:53:52;;;;;;;2.63;2.20;;;;;;;-145.63;24.34;38703.53;5022949;28;20053;-67
2023/08/25 10:56:18;;;;;;;2.20;2.00;;;;;;;-145.63;24.40;38721.13;5022764;28;20030;-68
2023/08/25 10:59:03;;;;;;;2.40;1.80;;;;;;;-145.63;25.03;38658.56;5026348;28;20097;-68
2023/08/25 11:01:38;;;;;;;2.78;1.65;;;;;;;-145.63;26.65;38597.94;5026699;28;20029;-68
2023/08/25 11:04:11;;;;;;;1.95;1.85;;;;;;;-145.63;26.68;38592.09;5026905;28;20045;-68
2023/08/25 11:06:45;;;;;;;2.58;1.90;;;;;;;-145.63;25.80;38635.09;5026884;28;20349;-68
2023/08/25 11:09:32;;;;;;;2.72;1.88;;;;;;;-145.63;26.57;38703.53;5026761;28;20038;-67
2023/08/25 11:12:00;;;;;;;7.18;5.78;;;;;;;-145.63;27.26;38715.28;5012055;28;20037;-67
2023/08/25 11:14:34;;;;;;;3.20;2.40;;;;;;;-145.63;27.83;38727.00;5026681;28;20037;-67